Time;durP1;ratioP1;P1;durP2;ratioP2;P2;SDS_P1;SDS_P2;PMS_P1;PMS_P2;Temp;Humidity;BMP_temperature;BMP_pressure;BME280_temperature;BME280_humidity;BME280_pressure;Samples;Min_cycle;Max_cycle;Signal;HPM_P1;HPM_P2
2021/08/11 00:02:23;;;;;;;9.80;6.87;;;;;;;19.60;76.17;100361.19;1585735;82;22282;-82
2021/08/11 00:04:50;;;;;;;10.10;6.20;;;;;;;19.55;76.13;100363.14;1574946;82;21424;-82
2021/08/11 00:07:16;;;;;;;12.27;6.37;;;;;;;19.50;76.20;100360.77;1574350;82;23434;-82
2021/08/11 00:09:42;;;;;;;8.03;6.13;;;;;;;19.46;76.54;100356.87;1577125;82;21379;-82
2021/08/11 00:12:08;;;;;;;10.57;5.67;;;;;;;19.44;76.79;100363.77;1559215;82;22391;-82
2021/08/11 00:14:35;;;;;;;9.50;6.50;;;;;;;19.43;76.59;100358.63;1571426;82;22414;-82
2021/08/11 00:17:01;;;;;;;9.60;6.07;;;;;;;19.41;76.81;100358.00;1550467;82;21498;-82
2021/08/11 00:19:27;;;;;;;9.43;6.00;;;;;;;19.41;76.61;100359.34;1568345;82;21498;-82
2021/08/11 00:21:53;;;;;;;7.40;5.70;;;;;;;19.39;76.67;100359.53;1565945;82;21630;-82
2021/08/11 00:24:20;;;;;;;8.30;5.53;;;;;;;19.36;76.69;100357.27;1569562;82;21388;-82
2021/08/11 00:26:46;;;;;;;7.77;5.03;;;;;;;19.32;76.91;100362.23;1566160;82;21453;-82
2021/08/11 00:29:12;;;;;;;5.77;4.63;;;;;;;19.29;77.28;100364.50;1573838;82;21403;-82
2021/08/11 00:31:38;;;;;;;4.73;4.23;;;;;;;19.27;77.16;100359.33;1561475;82;21357;-82
2021/08/11 00:34:04;;;;;;;6.73;4.30;;;;;;;19.28;77.03;100361.52;1573432;82;21387;-82
2021/08/11 00:36:30;;;;;;;9.77;5.20;;;;;;;19.28;76.96;100370.39;1568086;82;21468;-82
2021/08/11 00:38:56;;;;;;;5.23;4.60;;;;;;;19.26;77.03;100368.94;1569833;82;21410;-82
2021/08/11 00:41:22;;;;;;;7.57;5.40;;;;;;;19.23;76.97;100368.84;1565973;82;21424;-82
2021/08/11 00:43:48;;;;;;;5.20;4.47;;;;;;;19.20;77.10;100373.80;1579710;82;21394;-82
2021/08/11 00:46:14;;;;;;;9.27;5.57;;;;;;;19.14;77.41;100365.53;1570149;82;21439;-82
2021/08/11 00:48:40;;;;;;;7.73;4.97;;;;;;;19.11;77.54;100365.13;1552687;82;21558;-82
2021/08/11 00:51:07;;;;;;;8.27;4.47;;;;;;;19.10;77.65;100367.47;1562651;82;21496;-82
2021/08/11 00:53:36;;;;;;;5.87;4.17;;;;;;;19.08;77.74;100366.88;1571176;82;21732;-82
2021/08/11 00:56:03;;;;;;;7.77;4.33;;;;;;;19.08;77.70;100374.92;1559891;82;21468;-82
2021/08/11 00:58:30;;;;;;;6.53;5.03;;;;;;;19.05;78.04;100369.97;1553349;82;21452;-82
2021/08/11 01:00:59;;;;;;;5.43;4.57;;;;;;;19.01;78.46;100380.77;1569563;82;21459;-82
2021/08/11 01:03:27;;;;;;;10.93;4.60;;;;;;;18.92;78.65;100372.92;1584214;82;21630;-82
2021/08/11 01:05:57;;;;;;;7.30;4.60;;;;;;;18.87;78.71;100371.88;1565700;82;21619;-82
2021/08/11 01:08:24;;;;;;;5.87;4.17;;;;;;;18.85;78.51;100370.75;1574754;82;21438;-82
2021/08/11 01:10:52;;;;;;;4.57;3.90;;;;;;;18.87;78.43;100374.06;1574328;82;21564;-82
2021/08/11 01:13:20;;;;;;;6.47;4.60;;;;;;;18.88;78.35;100368.18;1569099;82;21461;-82
2021/08/11 01:15:46;;;;;;;8.27;5.07;;;;;;;18.92;78.11;100370.23;1567910;82;21468;-82
2021/08/11 01:18:18;;;;;;;5.57;4.23;;;;;;;18.94;77.94;100373.55;1569194;82;21409;-82
2021/08/11 01:21:14;;;;;;;7.83;4.77;;;;;;;18.92;78.16;100365.39;1571271;82;21469;-82
2021/08/11 01:24:10;;;;;;;8.53;5.37;;;;;;;18.88;78.07;100370.34;1569878;82;21454;-82
2021/08/11 01:27:06;;;;;;;6.77;5.00;;;;;;;18.87;77.91;100368.70;1575787;82;21454;-82
2021/08/11 01:30:02;;;;;;;7.50;4.37;;;;;;;18.88;77.90;100370.34;1460041;89;21529;-83
2021/08/11 01:33:01;;;;;;;8.17;4.37;;;;;;;18.88;78.50;100373.55;1466420;89;21483;-83
2021/08/11 01:35:42;;;;;;;11.03;4.10;;;;;;;18.85;78.34;100376.11;1462976;89;21614;-82
2021/08/11 01:38:13;;;;;;;6.30;4.37;;;;;;;18.88;77.96;100377.56;1464495;89;22630;-82
2021/08/11 01:43:23;;;;;;;5.70;5.20;;;;;;;18.98;77.49;100368.59;1458415;85;22749;-81
2021/08/11 01:45:50;;;;;;;9.08;5.03;;;;;;;18.98;77.11;100365.09;1472900;89;22996;-81
2021/08/11 01:48:22;;;;;;;6.67;5.07;;;;;;;19.01;76.93;100372.73;1469623;89;21606;-81
2021/08/11 01:50:50;;;;;;;6.30;5.20;;;;;;;19.04;76.88;100367.77;1470409;89;21701;-81
2021/08/11 01:53:20;;;;;;;7.90;5.43;;;;;;;19.09;76.79;100369.85;1467257;89;22309;-81
2021/08/11 01:55:51;;;;;;;8.20;5.53;;;;;;;19.11;76.62;100364.60;1455318;89;21489;-81
2021/08/11 01:58:26;;;;;;;8.60;4.60;;;;;;;19.14;76.73;100372.23;1461339;89;21495;-82
2021/08/11 02:00:57;;;;;;;5.70;4.27;;;;;;;18.97;76.25;100384.39;1420915;90;22381;-82
2021/08/11 02:06:04;;;;;;;5.30;4.80;;;;;;;18.57;77.19;100386.11;1524547;85;22684;-81
2021/08/11 02:08:32;;;;;;;8.57;4.60;;;;;;;18.36;77.53;100392.42;1491315;86;22431;-82
2021/08/11 02:11:01;;;;;;;9.17;5.10;;;;;;;18.29;77.83;100392.89;1507160;86;22276;-81
2021/08/11 02:13:28;;;;;;;9.37;5.07;;;;;;;18.21;78.36;100387.17;1503903;86;22394;-81
2021/08/11 02:15:54;;;;;;;7.77;4.40;;;;;;;18.18;78.65;100391.59;1515206;86;21492;-81
2021/08/11 02:21:00;;;;;;;8.60;5.00;;;;;;;18.14;80.94;100390.34;1528946;84;22700;-81
2021/08/11 02:23:26;;;;;;;8.53;5.50;;;;;;;18.09;79.27;100388.77;1495925;86;21675;-81
2021/08/11 02:26:07;;;;;;;10.87;5.23;;;;;;;18.06;80.07;100399.87;1482846;87;21441;-82
2021/08/11 02:28:39;;;;;;;7.90;5.10;;;;;;;18.02;79.64;100398.93;1502170;87;21567;-81
2021/08/11 02:33:59;;;;;;;7.40;5.20;;;;;;;17.95;80.12;100400.75;1518459;85;22656;-82
2021/08/11 02:39:12;;;;;;;6.10;5.50;;;;;;;17.80;81.12;100390.13;1529671;85;23461;-81
2021/08/11 02:41:49;;;;;;;7.93;5.63;;;;;;;17.75;80.71;100398.40;1504476;86;21558;-81
2021/08/11 02:44:33;;;;;;;6.77;5.43;;;;;;;17.73;80.38;100391.09;1504114;86;21455;-82
